Fairlawn, Virginia
Current Conditions -  °F | °C
As of 1:35 PM on Thursday 27 Nov 2014 (Local Time) from KPSK Reporting Station
Overcast Overcast  
Wind Chill: -2°   Ceiling: 3000
Heat Index:   Visibility: 10mi
Dew Point: -2°   Wind: 13mph
Humidity: 70%   Direction: 300°WNW
Pressure: 30.1"   Gusts: 20mph
Location:  37.1746°N, 80.6425°W
Report Text: KPSK 271835Z AUTO 30011G17KT 10SM OVC030 03/M02 A3010 RMK AO2 T00271022
Loading
Personal Weather Stations






























Interactive Weather Map New forecast layout! Learn more

10-Day Weather Forecast

Advertisements
Track Severe Weather on mobile